Mc Leansville, North Carolina
Current Conditions -  °F | °C
As of 1:54 PM on Thursday 23 Oct 2014 (Local Time) from KBUY Reporting Station
Clear Clear  
Wind Chill: 68°   Ceiling: Unl
Heat Index: 68°   Visibility: 10mi
Dew Point: 41°   Wind: 13mph
Humidity: 37%   Direction: 290°WNW
Pressure: 29.98"   Gusts: 21mph
Location:  36.112°N, 79.6658°W
Report Text: KBUY 231754Z AUTO 29011G18KT 10SM CLR 20/05 A2998 RMK AO2 SLP151 T02000050 10200 20078 58021
Loading
Personal Weather Stations






























Interactive Weather Map
Tropical Storm Tracking
New forecast layout! Learn more

10-Day Weather Forecast

Advertisements
Track Severe Weather on mobile